createdAt,value
2018-11-14T08:26:44.028Z,76.50
2018-11-14T08:29:42.043Z,67.80
2018-11-14T09:06:49.552Z,68.30
2018-11-14T09:09:37.702Z,71.40
2018-11-14T09:12:32.216Z,70.50
2018-11-14T09:15:03.992Z,70.50
2018-11-14T09:17:55.755Z,70.30
2018-11-14T09:20:53.730Z,70.30
2018-11-14T09:23:40.740Z,70.50
2018-11-14T09:26:37.569Z,70.60
2018-11-14T09:29:25.657Z,70.30
2018-11-14T09:35:24.026Z,69.80
2018-11-14T09:38:09.820Z,69.70
2018-11-14T09:40:46.400Z,69.50
2018-11-14T09:43:25.662Z,69.40
2018-11-14T09:46:02.936Z,69.50
2018-11-14T09:48:38.767Z,69.40
2018-11-14T09:51:12.012Z,69.40
2018-11-14T09:54:03.371Z,69.40
2018-11-14T09:57:06.286Z,69.50
2018-11-14T10:00:52.091Z,69.40
2018-11-14T10:28:33.566Z,69.20
2018-11-14T10:31:20.692Z,69.40
2018-11-14T10:36:49.410Z,69.00
2018-11-14T10:46:13.355Z,68.00
2018-11-14T10:49:06.107Z,67.70
2018-11-14T10:52:28.127Z,67.50
2018-11-14T10:55:16.643Z,67.50
2018-11-14T10:57:58.257Z,67.60
2018-11-14T11:05:04.620Z,67.70
2018-11-14T11:07:46.080Z,67.70
2018-11-14T11:10:36.343Z,67.30
2018-11-14T11:13:17.622Z,67.30
2018-11-14T11:16:02.998Z,67.20
2018-11-14T11:19:42.646Z,67.50
2018-11-14T11:25:33.900Z,66.70
2018-11-14T11:38:07.193Z,66.10
2018-11-14T11:40:53.324Z,65.80
2018-11-14T11:43:28.254Z,65.70
2018-11-14T11:45:58.981Z,65.50
2018-11-14T11:49:10.312Z,65.30
2018-11-14T12:06:55.440Z,64.90
2018-11-14T12:09:25.473Z,65.20
2018-11-14T12:12:09.809Z,64.50
2018-11-14T12:23:55.558Z,64.10
2018-11-14T12:26:58.386Z,63.70
2018-11-14T13:02:43.670Z,62.40
2018-11-14T13:05:21.570Z,62.30
2018-11-14T13:07:57.023Z,61.80
2018-11-14T13:10:29.856Z,61.50
2018-11-14T13:13:13.634Z,61.20
2018-11-14T13:15:45.495Z,60.90
2018-11-14T13:18:18.813Z,60.50
2018-11-14T13:20:49.841Z,60.40
2018-11-14T13:23:21.892Z,60.00
2018-11-14T13:25:54.230Z,60.00
2018-11-14T13:28:24.918Z,59.90
2018-11-14T13:30:55.214Z,60.00
2018-11-14T13:33:26.636Z,59.80
2018-11-14T13:36:04.018Z,59.90
2018-11-14T13:38:40.115Z,59.80
2018-11-14T13:41:12.648Z,59.70
2018-11-14T13:46:51.367Z,59.50
2018-11-14T13:52:48.947Z,59.20
2018-11-14T13:55:32.796Z,59.30
2018-11-14T14:02:18.022Z,59.40
2018-11-14T14:05:20.572Z,59.70
2018-11-14T14:07:55.378Z,59.60
2018-11-14T14:13:23.995Z,59.70
2018-11-14T14:16:02.237Z,59.60
2018-11-14T14:18:33.137Z,59.80
2018-11-14T14:21:20.205Z,59.90
2018-11-14T14:23:56.660Z,60.10
2018-11-14T14:26:30.370Z,60.20
2018-11-14T14:29:15.875Z,60.30
2018-11-14T14:31:50.704Z,60.40
2018-11-14T14:35:07.038Z,60.60
2018-11-14T14:38:08.944Z,60.60
2018-11-14T14:40:55.580Z,60.70
2018-11-14T14:43:32.176Z,60.70
2018-11-14T14:49:57.057Z,61.00
2018-11-14T14:56:23.554Z,61.10
2018-11-14T14:59:23.196Z,61.20
2018-11-14T15:02:14.032Z,61.30
2018-11-14T15:11:04.841Z,61.70
2018-11-14T15:16:36.102Z,62.00
2018-11-14T15:20:05.910Z,62.00
2018-11-14T15:22:53.888Z,62.00
2018-11-14T15:25:42.463Z,61.90
2018-11-14T15:28:14.143Z,62.20
2018-11-14T15:30:47.173Z,62.40
2018-11-14T15:33:34.721Z,62.40
2018-11-14T15:36:05.735Z,62.40
2018-11-14T15:38:36.067Z,62.50
2018-11-14T15:41:07.639Z,62.90
2018-11-14T15:43:45.109Z,63.00
2018-11-14T15:46:29.439Z,63.10
2018-11-14T15:49:10.009Z,63.00
2018-11-14T15:51:43.714Z,63.10
2018-11-14T15:54:16.365Z,63.20
2018-11-14T15:56:49.433Z,63.50
2018-11-14T16:10:54.059Z,63.50
2018-11-14T16:16:14.247Z,62.50
2018-11-14T16:18:44.340Z,63.20
2018-11-14T16:21:15.711Z,63.80
2018-11-14T16:23:46.450Z,64.20
2018-11-14T16:26:20.085Z,64.40
2018-11-14T16:31:50.522Z,64.80
2018-11-14T16:34:20.287Z,64.90
2018-11-14T16:39:53.850Z,65.20
2018-11-14T16:42:27.423Z,65.30
2018-11-14T16:45:18.353Z,65.30
2018-11-14T16:47:51.887Z,65.30
2018-11-14T16:53:32.841Z,65.30
2018-11-14T16:56:05.213Z,65.30
2018-11-14T17:03:24.266Z,65.40
2018-11-14T17:11:13.298Z,65.30
2018-11-14T17:14:02.618Z,65.10
2018-11-14T17:18:19.907Z,65.40
2018-11-14T17:21:28.248Z,65.70
2018-11-14T17:28:09.266Z,65.80
2018-11-14T17:34:57.229Z,66.10
2018-11-14T17:38:16.241Z,66.20
2018-11-14T17:41:11.242Z,66.70
2018-11-14T17:44:25.914Z,67.60
2018-11-14T18:02:08.807Z,67.20
2018-11-14T18:06:04.233Z,67.80
2018-11-14T18:28:40.485Z,67.50
2018-11-14T18:38:28.129Z,69.10
2018-11-14T20:39:48.720Z,71.70
2018-11-14T20:56:55.040Z,72.50
2018-11-14T21:03:08.838Z,72.50
2018-11-14T21:05:56.989Z,72.70
2018-11-14T21:08:49.382Z,72.70
2018-11-14T21:21:39.080Z,73.90
2018-11-14T21:27:46.360Z,73.10
2018-11-14T21:30:44.330Z,73.20
2018-11-14T22:19:26.335Z,73.20
2018-11-14T22:22:12.762Z,73.20
2018-11-14T22:35:36.332Z,73.60
2018-11-14T23:10:14.684Z,73.50
2018-11-14T23:13:42.752Z,73.80
2018-11-14T23:17:13.881Z,74.10
2018-11-14T23:27:36.335Z,74.20
